sensor_id;sensor_type;location;lat;lon;timestamp;temperature;humidity
81366;DHT22;70822;51.990;22.766;2024-02-15T00:04:54;3.40;72.10
81366;DHT22;70822;51.990;22.766;2024-02-15T00:19:59;3.20;72.20
81366;DHT22;70822;51.990;22.766;2024-02-15T00:35:05;3.40;72.20
81366;DHT22;70822;51.990;22.766;2024-02-15T00:50:13;3.30;72.50
81366;DHT22;70822;51.990;22.766;2024-02-15T01:05:19;3.50;72.70
81366;DHT22;70822;51.990;22.766;2024-02-15T01:20:24;3.40;72.60
81366;DHT22;70822;51.990;22.766;2024-02-15T01:35:29;3.40;72.60
81366;DHT22;70822;51.990;22.766;2024-02-15T01:50:34;3.70;72.50
81366;DHT22;70822;51.990;22.766;2024-02-15T02:05:39;3.50;72.20
81366;DHT22;70822;51.990;22.766;2024-02-15T02:20:45;3.50;72.50
81366;DHT22;70822;51.990;22.766;2024-02-15T02:35:50;3.60;72.50
81366;DHT22;70822;51.990;22.766;2024-02-15T02:50:55;3.70;72.40
81366;DHT22;70822;51.990;22.766;2024-02-15T03:06:00;3.50;72.50
81366;DHT22;70822;51.990;22.766;2024-02-15T03:21:06;3.70;72.60
81366;DHT22;70822;51.990;22.766;2024-02-15T03:36:10;3.80;72.60
81366;DHT22;70822;51.990;22.766;2024-02-15T03:51:18;3.50;72.60
81366;DHT22;70822;51.990;22.766;2024-02-15T04:06:23;3.40;72.80
81366;DHT22;70822;51.990;22.766;2024-02-15T04:21:30;3.60;73.20
81366;DHT22;70822;51.990;22.766;2024-02-15T04:36:35;3.30;73.70
81366;DHT22;70822;51.990;22.766;2024-02-15T04:51:40;3.40;74.10
81366;DHT22;70822;51.990;22.766;2024-02-15T05:06:45;3.40;74.20
81366;DHT22;70822;51.990;22.766;2024-02-15T05:21:50;3.30;74.20
81366;DHT22;70822;51.990;22.766;2024-02-15T05:36:55;3.30;74.00
81366;DHT22;70822;51.990;22.766;2024-02-15T05:52:00;3.50;74.10
81366;DHT22;70822;51.990;22.766;2024-02-15T06:07:05;4.00;73.00
81366;DHT22;70822;51.990;22.766;2024-02-15T06:22:10;3.80;72.60
81366;DHT22;70822;51.990;22.766;2024-02-15T06:37:37;3.80;72.80
81366;DHT22;70822;51.990;22.766;2024-02-15T06:53:01;3.60;73.10
81366;DHT22;70822;51.990;22.766;2024-02-15T07:08:08;3.70;73.50
81366;DHT22;70822;51.990;22.766;2024-02-15T07:23:15;3.70;73.40
81366;DHT22;70822;51.990;22.766;2024-02-15T07:38:19;3.80;73.50
81366;DHT22;70822;51.990;22.766;2024-02-15T07:53:27;4.20;73.00
81366;DHT22;70822;51.990;22.766;2024-02-15T08:08:33;4.50;72.30
81366;DHT22;70822;51.990;22.766;2024-02-15T08:23:39;4.60;72.00
81366;DHT22;70822;51.990;22.766;2024-02-15T08:38:45;4.80;71.20
81366;DHT22;70822;51.990;22.766;2024-02-15T08:53:51;5.10;70.50
81366;DHT22;70822;51.990;22.766;2024-02-15T09:08:56;5.60;70.50
81366;DHT22;70822;51.990;22.766;2024-02-15T09:24:02;5.80;67.50
81366;DHT22;70822;51.990;22.766;2024-02-15T09:39:07;6.30;67.20
81366;DHT22;70822;51.990;22.766;2024-02-15T09:54:14;6.80;65.50
81366;DHT22;70822;51.990;22.766;2024-02-15T10:09:28;7.00;64.00
81366;DHT22;70822;51.990;22.766;2024-02-15T10:24:33;7.20;63.10
81366;DHT22;70822;51.990;22.766;2024-02-15T10:39:38;7.70;60.80
81366;DHT22;70822;51.990;22.766;2024-02-15T10:54:47;8.10;62.00
81366;DHT22;70822;51.990;22.766;2024-02-15T11:09:57;8.50;60.90
81366;DHT22;70822;51.990;22.766;2024-02-15T11:25:03;8.70;60.70
81366;DHT22;70822;51.990;22.766;2024-02-15T11:40:16;8.80;58.10
81366;DHT22;70822;51.990;22.766;2024-02-15T11:55:22;8.80;58.90
81366;DHT22;70822;51.990;22.766;2024-02-15T12:10:31;8.70;58.80
81366;DHT22;70822;51.990;22.766;2024-02-15T12:25:55;8.80;58.50
81366;DHT22;70822;51.990;22.766;2024-02-15T12:41:00;9.20;57.10
81366;DHT22;70822;51.990;22.766;2024-02-15T12:56:07;9.00;58.20
81366;DHT22;70822;51.990;22.766;2024-02-15T13:11:13;8.90;58.60
81366;DHT22;70822;51.990;22.766;2024-02-15T13:26:20;8.80;59.10
81366;DHT22;70822;51.990;22.766;2024-02-15T13:41:25;8.80;60.20
81366;DHT22;70822;51.990;22.766;2024-02-15T13:56:31;8.70;60.00
81366;DHT22;70822;51.990;22.766;2024-02-15T14:11:36;8.60;59.80
81366;DHT22;70822;51.990;22.766;2024-02-15T14:26:42;8.40;59.20
81366;DHT22;70822;51.990;22.766;2024-02-15T14:41:47;8.40;58.70
81366;DHT22;70822;51.990;22.766;2024-02-15T14:56:52;8.40;59.60
81366;DHT22;70822;51.990;22.766;2024-02-15T15:11:58;8.10;59.80
81366;DHT22;70822;51.990;22.766;2024-02-15T15:27:30;8.10;60.20
81366;DHT22;70822;51.990;22.766;2024-02-15T15:42:36;7.90;60.60
81366;DHT22;70822;51.990;22.766;2024-02-15T15:57:41;7.80;60.50
81366;DHT22;70822;51.990;22.766;2024-02-15T16:12:46;7.90;61.50
81366;DHT22;70822;51.990;22.766;2024-02-15T16:27:51;7.70;62.00
81366;DHT22;70822;51.990;22.766;2024-02-15T16:42:57;7.70;62.40
81366;DHT22;70822;51.990;22.766;2024-02-15T16:58:03;7.50;63.00
81366;DHT22;70822;51.990;22.766;2024-02-15T17:13:08;7.50;63.10
81366;DHT22;70822;51.990;22.766;2024-02-15T17:28:13;7.30;63.10
81366;DHT22;70822;51.990;22.766;2024-02-15T17:43:18;7.20;64.00
81366;DHT22;70822;51.990;22.766;2024-02-15T17:58:22;7.00;64.40
81366;DHT22;70822;51.990;22.766;2024-02-15T18:13:29;7.10;64.40
81366;DHT22;70822;51.990;22.766;2024-02-15T18:28:34;6.80;64.80
81366;DHT22;70822;51.990;22.766;2024-02-15T18:43:39;6.60;65.20
81366;DHT22;70822;51.990;22.766;2024-02-15T18:58:45;6.80;65.50
81366;DHT22;70822;51.990;22.766;2024-02-15T19:13:50;6.50;65.80
81366;DHT22;70822;51.990;22.766;2024-02-15T19:28:55;6.60;66.40
81366;DHT22;70822;51.990;22.766;2024-02-15T19:44:00;6.40;67.40
81366;DHT22;70822;51.990;22.766;2024-02-15T19:59:07;6.30;68.30
81366;DHT22;70822;51.990;22.766;2024-02-15T20:14:12;6.20;68.70
81366;DHT22;70822;51.990;22.766;2024-02-15T20:29:19;6.60;68.60
81366;DHT22;70822;51.990;22.766;2024-02-15T20:44:24;6.30;69.20
81366;DHT22;70822;51.990;22.766;2024-02-15T20:59:29;6.30;69.80
81366;DHT22;70822;51.990;22.766;2024-02-15T21:14:34;6.30;69.60
81366;DHT22;70822;51.990;22.766;2024-02-15T21:29:41;6.10;69.90
81366;DHT22;70822;51.990;22.766;2024-02-15T21:44:47;6.10;70.30
81366;DHT22;70822;51.990;22.766;2024-02-15T21:59:52;6.10;70.60
81366;DHT22;70822;51.990;22.766;2024-02-15T22:14:57;5.80;71.20
81366;DHT22;70822;51.990;22.766;2024-02-15T22:30:06;6.00;71.20
81366;DHT22;70822;51.990;22.766;2024-02-15T22:45:11;5.90;71.20
81366;DHT22;70822;51.990;22.766;2024-02-15T23:00:18;6.00;71.50
81366;DHT22;70822;51.990;22.766;2024-02-15T23:15:23;5.80;71.50
81366;DHT22;70822;51.990;22.766;2024-02-15T23:30:28;5.90;71.90
81366;DHT22;70822;51.990;22.766;2024-02-15T23:45:33;5.80;71.90
